Time;durP1;ratioP1;P1;durP2;ratioP2;P2;SDS_P1;SDS_P2;PMS_P1;PMS_P2;Temp;Humidity;BMP_temperature;BMP_pressure;BME280_temperature;BME280_humidity;BME280_pressure;Samples;Min_cycle;Max_cycle;Signal;HPM_P1;HPM_P2
2022/12/13 00:00:17;;;;;;;;;;;;;;;5.16;59.80;100332.41;4939853;29;19918;-85
2022/12/13 00:03:01;;;;;;;;;;;;;;;4.96;60.73;100326.44;4947398;29;19919;-85
2022/12/13 00:05:46;;;;;;;;;;;;;;;4.79;60.67;100323.41;4960436;29;19918;-85
2022/12/13 00:08:30;;;;;;;;;;;;;;;4.82;61.10;100342.50;4946786;29;19918;-85
2022/12/13 00:11:15;;;;;;;;;;;;;;;4.87;60.72;100333.56;4949254;29;20392;-85
2022/12/13 00:13:59;;;;;;;;;;;;;;;4.79;61.31;100331.47;4929170;29;19918;-85
2022/12/13 00:16:45;;;;;;;;;;;;;;;4.67;63.47;100335.34;4932527;29;20331;-84
2022/12/13 00:19:29;;;;;;;;;;;;;;;4.91;62.11;100334.59;4933103;29;19919;-84
2022/12/13 00:22:15;;;;;;;;;;;;;;;4.98;60.98;100335.84;4929194;29;19919;-85
2022/12/13 00:25:00;;;;;;;;;;;;;;;5.13;60.94;100341.03;4953338;29;19918;-85
2022/12/13 00:27:45;;;;;;;;;;;;;;;5.21;60.46;100344.19;4932897;29;19919;-84
2022/12/13 00:30:30;;;;;;;;;;;;;;;5.21;60.22;100336.13;4931750;29;19919;-85
2022/12/13 00:33:14;;;;;;;;;;;;;;;5.17;60.11;100333.19;4932781;29;19918;-84
2022/12/13 00:36:02;;;;;;;;;;;;;;;5.02;61.01;100326.09;4959646;29;19919;-85
2022/12/13 00:38:59;;;;;;;;;;;;;;;4.82;63.20;100320.94;4933187;29;19927;-86
2022/12/13 00:41:43;;;;;;;;;;;;;;;4.62;63.53;100318.47;4940184;29;19919;-87
2022/12/13 00:44:28;;;;;;;;;;;;;;;4.54;62.89;100319.88;4940675;29;19918;-85
2022/12/13 00:47:12;;;;;;;;;;;;;;;4.45;62.88;100318.09;4949306;29;19918;-85
2022/12/13 00:49:58;;;;;;;;;;;;;;;4.50;64.33;100318.06;4940694;29;19919;-85
2022/12/13 00:52:42;;;;;;;;;;;;;;;4.70;64.04;100320.53;4958595;28;19919;-84
2022/12/13 00:55:27;;;;;;;;;;;;;;;4.61;64.94;100308.78;4948178;29;19923;-84
2022/12/13 00:58:11;;;;;;;;;;;;;;;4.58;63.10;100303.97;4958739;28;19923;-85
2022/12/13 01:01:03;;;;;;;;;;;;;;;4.58;62.69;100301.28;4930394;29;19919;-84
2022/12/13 01:03:47;;;;;;;;;;;;;;;4.56;64.29;100309.66;4927318;29;19923;-86
2022/12/13 01:06:37;;;;;;;;;;;;;;;4.58;62.95;100309.34;4943238;29;20288;-85
2022/12/13 01:09:26;;;;;;;;;;;;;;;4.59;62.82;100300.19;4949883;29;19926;-85
2022/12/13 01:12:10;;;;;;;;;;;;;;;4.67;66.05;100313.03;4956599;29;19918;-85
2022/12/13 01:14:54;;;;;;;;;;;;;;;4.96;63.77;100305.69;4962373;28;19919;-85
2022/12/13 01:17:39;;;;;;;;;;;;;;;4.86;62.18;100303.13;4931413;29;20412;-85
2022/12/13 01:20:23;;;;;;;;;;;;;;;4.87;61.96;100303.94;4940295;29;19919;-85
2022/12/13 01:23:08;;;;;;;;;;;;;;;4.89;60.37;100305.22;4940817;29;19922;-85
2022/12/13 01:25:52;;;;;;;;;;;;;;;5.03;60.45;100310.72;4928471;29;20396;-85
2022/12/13 01:28:37;;;;;;;;;;;;;;;4.91;60.08;100304.94;4953304;29;19926;-85
2022/12/13 01:31:21;;;;;;;;;;;;;;;4.81;60.64;100297.00;4940774;29;20404;-85
2022/12/13 01:34:11;;;;;;;;;;;;;;;4.71;60.56;100287.13;4976135;28;19923;-84
2022/12/13 01:36:56;;;;;;;;;;;;;;;4.76;60.28;100276.31;4963341;29;19918;-87
2022/12/13 01:39:40;;;;;;;;;;;;;;;4.77;60.03;100266.34;4977406;28;19919;-84
2022/12/13 01:42:24;;;;;;;;;;;;;;;4.87;59.74;100267.03;4962085;29;19919;-85
2022/12/13 01:45:18;;;;;;;;;;;;;;;4.64;60.57;100259.75;4963507;29;20279;-85
2022/12/13 01:48:05;;;;;;;;;;;;;;;4.53;60.99;100259.06;4956128;28;19919;-85
2022/12/13 01:50:52;;;;;;;;;;;;;;;4.57;61.33;100260.06;4960745;28;19919;-85
2022/12/13 01:53:39;;;;;;;;;;;;;;;4.76;60.91;100248.56;4947048;29;19918;-85
2022/12/13 01:56:35;;;;;;;;;;;;;;;4.74;60.04;100255.03;4955737;28;19918;-85
2022/12/13 01:59:20;;;;;;;;;;;;;;;4.84;60.60;100243.34;4946341;29;19923;-85
2022/12/13 02:02:06;;;;;;;;;;;;;;;5.09;60.07;100245.69;4941896;29;19919;-85
2022/12/13 02:04:54;;;;;;;;;;;;;;;5.10;60.24;100244.63;4925350;29;19919;-85
2022/12/13 02:07:40;;;;;;;;;;;;;;;5.25;60.76;100248.19;4939423;29;19926;-85
2022/12/13 02:10:25;;;;;;;;;;;;;;;5.24;59.54;100247.38;4947391;29;19918;-85
2022/12/13 02:13:10;;;;;;;;;;;;;;;5.29;59.79;100249.19;4961493;28;19919;-84
2022/12/13 02:16:01;;;;;;;;;;;;;;;5.26;59.74;100245.22;4958996;29;19918;-85
2022/12/13 02:18:45;;;;;;;;;;;;;;;5.12;60.14;100247.84;4944137;29;19923;-85
2022/12/13 02:21:33;;;;;;;;;;;;;;;5.21;60.29;100247.97;4932923;29;19919;-83
2022/12/13 02:24:23;;;;;;;;;;;;;;;5.31;59.70;100247.03;4935959;29;19923;-85
2022/12/13 02:27:26;;;;;;;;;;;;;;;5.24;58.92;100249.28;4945029;29;19923;-85
2022/12/13 02:30:18;;;;;;;;;;;;;;;5.22;59.28;100238.81;4951167;28;19918;-85
2022/12/13 02:33:11;;;;;;;;;;;;;;;5.21;58.88;100242.59;4975091;28;19919;-85
2022/12/13 02:35:56;;;;;;;;;;;;;;;4.91;60.55;100233.03;4968141;28;19919;-85
2022/12/13 02:38:40;;;;;;;;;;;;;;;4.71;61.69;100227.88;4947629;29;19922;-85
2022/12/13 02:41:36;;;;;;;;;;;;;;;4.91;61.41;100227.63;4944840;29;19918;-85
2022/12/13 02:44:39;;;;;;;;;;;;;;;4.95;61.55;100234.03;4952282;29;19918;-85
2022/12/13 02:47:25;;;;;;;;;;;;;;;4.98;61.29;100235.34;4976735;28;19918;-85
2022/12/13 02:50:10;;;;;;;;;;;;;;;5.00;60.05;100236.66;4976798;28;19919;-84
2022/12/13 02:52:54;;;;;;;;;;;;;;;5.09;59.94;100232.22;4947804;29;19919;-85
2022/12/13 02:55:39;;;;;;;;;;;;;;;5.14;61.06;100224.06;4935096;29;20288;-85
2022/12/13 02:58:28;;;;;;;;;;;;;;;5.21;60.90;100225.59;4936320;28;19923;-85
2022/12/13 03:01:15;;;;;;;;;;;;;;;5.22;61.15;100227.22;4961875;28;19918;-85
2022/12/13 03:04:00;;;;;;;;;;;;;;;5.20;61.23;100224.00;4962185;29;19918;-84
2022/12/13 03:06:57;;;;;;;;;;;;;;;5.23;61.07;100218.84;4961595;29;19918;-85
2022/12/13 03:09:57;;;;;;;;;;;;;;;5.22;60.87;100209.16;4980829;28;19919;-85
2022/12/13 03:15:55;;;;;;;;;;;;;;;5.16;61.50;100221.09;4942613;28;20384;-85
2022/12/13 03:18:40;;;;;;;;;;;;;;;5.21;61.42;100217.53;4946748;28;19923;-85
2022/12/13 03:21:25;;;;;;;;;;;;;;;5.20;61.52;100207.81;4977575;28;19919;-85
2022/12/13 03:24:10;;;;;;;;;;;;;;;5.18;61.48;100211.63;4962284;29;19919;-85
2022/12/13 03:26:55;;;;;;;;;;;;;;;5.23;60.62;100215.34;4961827;29;19918;-85
2022/12/13 03:29:39;;;;;;;;;;;;;;;5.27;61.08;100213.66;4953311;28;19918;-85
2022/12/13 03:32:24;;;;;;;;;;;;;;;5.20;60.55;100213.22;4961290;28;19919;-85
2022/12/13 03:35:08;;;;;;;;;;;;;;;5.13;60.46;100211.69;4940906;29;19923;-85
2022/12/13 03:37:53;;;;;;;;;;;;;;;5.08;60.88;100206.38;4939055;28;19926;-85
2022/12/13 03:40:37;;;;;;;;;;;;;;;5.17;61.31;100214.63;4972212;28;19919;-85
2022/12/13 03:43:22;;;;;;;;;;;;;;;5.12;60.07;100212.00;4968065;28;19919;-85
2022/12/13 03:46:07;;;;;;;;;;;;;;;5.09;61.32;100218.75;4958714;28;19918;-85
2022/12/13 03:48:51;;;;;;;;;;;;;;;5.09;61.02;100207.97;4961701;28;19918;-86
2022/12/13 03:51:36;;;;;;;;;;;;;;;4.95;61.50;100204.41;4942101;29;19918;-86
2022/12/13 03:54:20;;;;;;;;;;;;;;;4.97;61.59;100201.44;4961619;29;19922;-85
2022/12/13 03:57:06;;;;;;;;;;;;;;;5.16;61.25;100203.03;4947946;29;19919;-85
2022/12/13 03:59:50;;;;;;;;;;;;;;;5.08;60.52;100206.38;4942080;29;19923;-85
2022/12/13 04:02:34;;;;;;;;;;;;;;;5.05;61.05;100200.75;4943396;29;19919;-85
2022/12/13 04:05:19;;;;;;;;;;;;;;;5.13;61.02;100192.00;4926431;29;19923;-85
2022/12/13 04:08:03;;;;;;;;;;;;;;;5.18;61.34;100200.84;4968143;28;19919;-85
2022/12/13 04:10:48;;;;;;;;;;;;;;;5.01;61.70;100203.25;4942374;29;19922;-85
2022/12/13 04:13:32;;;;;;;;;;;;;;;4.89;62.14;100199.38;4936441;28;19918;-85
2022/12/13 04:16:17;;;;;;;;;;;;;;;5.05;62.80;100204.25;4970479;28;19918;-84
2022/12/13 04:19:01;;;;;;;;;;;;;;;5.24;62.02;100201.56;4942210;28;19923;-84
2022/12/13 04:21:45;;;;;;;;;;;;;;;5.14;62.14;100202.50;4954671;29;19918;-85
2022/12/13 04:24:30;;;;;;;;;;;;;;;5.27;61.79;100197.50;4941295;29;20388;-84
2022/12/13 04:27:14;;;;;;;;;;;;;;;5.32;60.75;100200.13;4948876;29;19918;-84
2022/12/13 04:29:58;;;;;;;;;;;;;;;5.35;60.23;100207.59;4941155;29;19923;-85
2022/12/13 04:32:46;;;;;;;;;;;;;;;5.26;60.70;100203.97;4933106;29;20288;-84
2022/12/13 04:35:30;;;;;;;;;;;;;;;5.25;60.68;100203.16;4933811;29;19926;-85
2022/12/13 04:38:15;;;;;;;;;;;;;;;5.22;60.78;100206.47;4929941;29;19923;-84
2022/12/13 04:41:07;;;;;;;;;;;;;;;5.25;60.67;100205.88;4971090;28;19922;-85
2022/12/13 04:43:52;;;;;;;;;;;;;;;5.35;60.63;100205.72;4950835;29;19919;-85
2022/12/13 04:46:37;;;;;;;;;;;;;;;5.45;60.38;100207.44;4959722;29;19918;-85
2022/12/13 04:49:21;;;;;;;;;;;;;;;5.43;60.33;100206.97;4979298;28;19918;-85
2022/12/13 04:52:06;;;;;;;;;;;;;;;5.47;59.70;100208.78;4960448;28;19918;-86
2022/12/13 04:54:50;;;;;;;;;;;;;;;5.54;59.82;100209.19;4959497;29;20303;-85
2022/12/13 04:57:35;;;;;;;;;;;;;;;5.53;60.02;100206.78;4959963;29;19919;-85
2022/12/13 05:00:21;;;;;;;;;;;;;;;5.46;59.75;100203.66;4953770;29;19922;-85
2022/12/13 05:03:05;;;;;;;;;;;;;;;5.50;59.41;100204.66;4953902;29;19919;-85
2022/12/13 05:05:50;;;;;;;;;;;;;;;5.48;59.29;100210.38;4952042;29;19919;-86
2022/12/13 05:08:36;;;;;;;;;;;;;;;5.45;59.79;100215.53;4936500;29;19918;-86
2022/12/13 05:11:20;;;;;;;;;;;;;;;5.51;59.66;100212.47;4944952;29;19928;-85
2022/12/13 05:14:05;;;;;;;;;;;;;;;5.50;59.11;100216.25;4936455;29;19919;-86
2022/12/13 05:16:49;;;;;;;;;;;;;;;5.48;59.49;100206.88;4931255;29;20296;-86
2022/12/13 05:19:34;;;;;;;;;;;;;;;5.28;59.88;100201.78;4934739;29;19922;-86
2022/12/13 05:22:19;;;;;;;;;;;;;;;5.15;60.08;100196.03;4952217;29;19930;-85
2022/12/13 05:25:04;;;;;;;;;;;;;;;5.12;60.26;100202.03;4956094;29;19918;-86
2022/12/13 05:27:49;;;;;;;;;;;;;;;5.26;60.18;100203.97;4950666;29;19923;-86
2022/12/13 05:30:33;;;;;;;;;;;;;;;5.14;60.64;100199.00;4972429;28;19918;-86
2022/12/13 05:33:17;;;;;;;;;;;;;;;5.09;61.04;100202.59;4951341;29;19918;-85
2022/12/13 05:36:05;;;;;;;;;;;;;;;5.03;60.57;100201.06;4952949;29;19919;-86
2022/12/13 05:38:50;;;;;;;;;;;;;;;4.98;62.59;100201.13;4932285;29;19927;-85
2022/12/13 05:41:35;;;;;;;;;;;;;;;5.15;64.15;100203.31;4930579;29;19927;-83
2022/12/13 05:44:20;;;;;;;;;;;;;;;5.23;62.26;100201.88;4937554;28;19919;-85
2022/12/13 05:47:04;;;;;;;;;;;;;;;5.16;62.43;100204.94;4947052;29;20307;-86
2022/12/13 05:49:48;;;;;;;;;;;;;;;5.23;60.93;100204.56;4949300;29;19922;-86
2022/12/13 05:52:37;;;;;;;;;;;;;;;5.30;60.92;100204.97;4948120;28;19922;-89
2022/12/13 05:55:24;;;;;;;;;;;;;;;5.34;60.36;100204.09;4940223;29;20380;-88
2022/12/13 05:58:12;;;;;;;;;;;;;;;5.37;59.96;100205.44;4923489;29;19927;-89
2022/12/13 06:01:03;;;;;;;;;;;;;;;5.42;60.83;100200.75;4947815;28;20301;-86
2022/12/13 06:03:48;;;;;;;;;;;;;;;5.52;60.75;100197.09;4960631;28;19918;-88
2022/12/13 06:06:32;;;;;;;;;;;;;;;5.44;60.53;100198.56;4933787;29;19919;-91
2022/12/13 06:09:17;;;;;;;;;;;;;;;5.49;60.78;100203.06;4968400;28;19919;-90
2022/12/13 06:12:03;;;;;;;;;;;;;;;5.51;60.34;100199.00;4965555;28;19919;-90
2022/12/13 06:14:47;;;;;;;;;;;;;;;5.48;60.70;100209.56;4947101;29;19923;-90
2022/12/13 06:17:32;;;;;;;;;;;;;;;5.62;62.54;100204.22;4945396;28;19919;-90
2022/12/13 06:20:17;;;;;;;;;;;;;;;5.56;61.11;100200.81;4941111;29;20316;-90
2022/12/13 06:23:01;;;;;;;;;;;;;;;5.56;61.90;100195.41;4948313;28;19918;-90
2022/12/13 06:25:46;;;;;;;;;;;;;;;5.48;61.69;100198.78;4969373;28;19918;-88
2022/12/13 06:28:30;;;;;;;;;;;;;;;5.46;61.65;100203.66;4937615;28;19926;-88
2022/12/13 06:31:17;;;;;;;;;;;;;;;5.40;60.95;100200.25;4944236;29;19919;-87
2022/12/13 06:34:02;;;;;;;;;;;;;;;5.47;61.00;100203.38;4938569;29;19919;-89
2022/12/13 06:36:47;;;;;;;;;;;;;;;5.56;63.44;100208.91;4934115;29;19919;-86
2022/12/13 06:39:32;;;;;;;;;;;;;;;5.51;60.38;100214.38;4942299;28;19923;-88
2022/12/13 06:42:17;;;;;;;;;;;;;;;5.42;60.17;100211.53;4929128;29;19923;-88
2022/12/13 06:45:02;;;;;;;;;;;;;;;5.39;60.47;100216.69;4944318;29;19941;-88
2022/12/13 06:47:47;;;;;;;;;;;;;;;5.39;60.55;100214.00;4941812;28;19922;-88
2022/12/13 06:50:31;;;;;;;;;;;;;;;5.41;60.04;100220.72;4946677;28;19919;-87
2022/12/13 06:53:16;;;;;;;;;;;;;;;5.43;60.63;100226.63;4937270;29;19918;-87
2022/12/13 06:56:05;;;;;;;;;;;;;;;5.42;60.26;100221.53;4945479;28;19919;-85
2022/12/13 06:58:49;;;;;;;;;;;;;;;5.29;61.45;100227.63;4938940;28;19927;-87
2022/12/13 07:01:33;;;;;;;;;;;;;;;5.25;62.26;100224.72;4935207;29;19926;-87
2022/12/13 07:04:18;;;;;;;;;;;;;;;5.23;61.33;100228.81;4960759;28;19918;-85
2022/12/13 07:07:02;;;;;;;;;;;;;;;5.11;62.53;100226.56;4931846;29;19919;-87
2022/12/13 07:09:47;;;;;;;;;;;;;;;5.12;63.18;100228.97;4953587;29;19919;-88
2022/12/13 07:12:31;;;;;;;;;;;;;;;5.17;62.73;100230.78;4941966;28;20315;-88
2022/12/13 07:15:16;;;;;;;;;;;;;;;5.15;62.08;100227.56;4970421;28;19919;-87
2022/12/13 07:18:04;;;;;;;;;;;;;;;5.20;62.19;100234.78;4945327;28;19922;-88
2022/12/13 07:20:49;;;;;;;;;;;;;;;5.15;63.30;100239.16;4935166;29;19922;-87
2022/12/13 07:23:34;;;;;;;;;;;;;;;5.31;66.22;100236.25;4927116;29;19922;-87
2022/12/13 07:26:18;;;;;;;;;;;;;;;5.21;61.09;100239.09;4937807;29;19919;-87
2022/12/13 07:29:03;;;;;;;;;;;;;;;5.11;62.56;100240.84;4950639;29;19918;-87
2022/12/13 07:31:48;;;;;;;;;;;;;;;5.09;62.47;100242.19;4955626;29;20316;-87
2022/12/13 07:34:33;;;;;;;;;;;;;;;5.13;63.40;100233.25;4947552;29;20307;-87
2022/12/13 07:37:18;;;;;;;;;;;;;;;5.12;62.49;100241.63;4981060;28;19918;-86
2022/12/13 07:40:02;;;;;;;;;;;;;;;5.18;62.25;100250.47;4980791;28;19922;-86
2022/12/13 07:42:50;;;;;;;;;;;;;;;5.18;62.49;100239.69;4939443;29;19919;-87
2022/12/13 07:45:35;;;;;;;;;;;;;;;5.18;61.64;100251.25;4958939;28;20388;-86
2022/12/13 07:48:20;;;;;;;;;;;;;;;5.11;62.13;100243.53;4933948;28;19923;-87
2022/12/13 07:51:07;;;;;;;;;;;;;;;5.10;61.40;100251.91;4931292;29;19919;-87
2022/12/13 07:53:51;;;;;;;;;;;;;;;5.15;62.26;100251.81;4941148;29;19918;-87
2022/12/13 07:56:36;;;;;;;;;;;;;;;5.19;62.47;100255.53;4962913;28;19919;-86
2022/12/13 07:59:20;;;;;;;;;;;;;;;5.20;62.47;100261.72;4940982;28;19923;-83
2022/12/13 08:02:05;;;;;;;;;;;;;;;5.25;61.53;100254.38;4947876;29;19919;-86
2022/12/13 08:04:50;;;;;;;;;;;;;;;5.29;64.29;100260.78;4940850;29;19919;-87
2022/12/13 08:07:34;;;;;;;;;;;;;;;5.30;62.76;100266.97;4960962;28;19919;-87
2022/12/13 08:10:19;;;;;;;;;;;;;;;5.36;62.47;100263.13;4971932;28;19923;-85
2022/12/13 08:13:03;;;;;;;;;;;;;;;5.34;61.67;100266.09;4950776;28;20413;-88
2022/12/13 08:15:48;;;;;;;;;;;;;;;5.34;62.33;100265.31;4939671;28;20383;-88
2022/12/13 08:18:33;;;;;;;;;;;;;;;5.31;61.83;100263.19;4942114;29;19923;-87
2022/12/13 08:21:18;;;;;;;;;;;;;;;5.32;61.97;100262.91;4941222;29;19919;-87
2022/12/13 08:24:02;;;;;;;;;;;;;;;5.22;62.08;100263.06;4943902;28;19918;-88
2022/12/13 08:26:47;;;;;;;;;;;;;;;5.14;63.99;100261.81;4968417;28;19919;-87
2022/12/13 08:29:33;;;;;;;;;;;;;;;5.10;64.00;100262.69;4950308;28;19926;-88
2022/12/13 08:32:17;;;;;;;;;;;;;;;5.07;63.76;100258.69;4974186;28;19918;-89
2022/12/13 08:35:02;;;;;;;;;;;;;;;5.06;63.55;100261.66;4958626;28;19918;-89
2022/12/13 08:37:46;;;;;;;;;;;;;;;5.10;61.87;100268.06;4950275;29;20323;-89
2022/12/13 08:40:31;;;;;;;;;;;;;;;5.14;64.57;100263.69;4958638;28;19922;-89
2022/12/13 08:43:16;;;;;;;;;;;;;;;5.18;63.00;100268.22;4987544;28;19919;-89
2022/12/13 08:46:01;;;;;;;;;;;;;;;5.21;60.42;100264.16;4960416;28;19914;-89
2022/12/13 08:48:45;;;;;;;;;;;;;;;5.16;59.55;100270.41;4981567;28;19969;-89
2022/12/13 08:51:30;;;;;;;;;;;;;;;5.13;59.46;100270.97;4958063;28;19918;-78
2022/12/13 08:54:14;;;;;;;;;;;;;;;5.14;58.75;100286.06;4947145;29;19918;-83
2022/12/13 08:56:59;;;;;;;;;;;;;;;5.09;58.56;100283.44;4955201;29;19919;-82
2022/12/13 08:59:43;;;;;;;;;;;;;;;5.06;58.34;100286.72;4961816;28;19924;-83
2022/12/13 09:02:28;;;;;;;;;;;;;;;5.05;57.01;100287.00;4944413;29;19919;-84
2022/12/13 09:05:13;;;;;;;;;;;;;;;5.10;57.76;100290.44;4946981;29;19919;-84
2022/12/13 09:07:58;;;;;;;;;;;;;;;5.07;57.64;100293.72;4957599;28;19919;-85
2022/12/13 09:10:43;;;;;;;;;;;;;;;5.10;56.72;100292.31;4952324;28;19919;-86
2022/12/13 09:13:29;;;;;;;;;;;;;;;5.08;56.45;100287.22;4954093;29;19918;-83
2022/12/13 09:16:15;;;;;;;;;;;;;;;5.06;56.67;100294.00;4939834;29;20292;-82
2022/12/13 09:19:00;;;;;;;;;;;;;;;5.12;56.59;100293.66;4961196;29;19922;-82
2022/12/13 09:21:44;;;;;;;;;;;;;;;5.13;57.07;100294.41;4957216;29;19919;-83
2022/12/13 09:24:29;;;;;;;;;;;;;;;5.20;57.02;100296.78;4949279;29;20156;-83
2022/12/13 09:27:13;;;;;;;;;;;;;;;5.23;57.74;100296.22;4954150;29;19918;-82
2022/12/13 09:29:57;;;;;;;;;;;;;;;5.29;56.94;100303.13;4945738;29;20384;-82
2022/12/13 09:32:48;;;;;;;;;;;;;;;5.29;56.88;100305.81;4927436;29;19919;-82
2022/12/13 09:35:33;;;;;;;;;;;;;;;5.35;55.44;100307.34;4951132;28;19918;-81
2022/12/13 09:38:17;;;;;;;;;;;;;;;5.36;55.51;100306.25;4941035;29;19918;-81
2022/12/13 09:41:12;;;;;;;;;;;;;;;5.35;56.09;100307.34;4960443;28;20390;-81
2022/12/13 09:44:03;;;;;;;;;;;;;;;5.31;56.07;100306.31;4978220;28;19926;-83
2022/12/13 09:46:49;;;;;;;;;;;;;;;5.31;56.40;100304.44;4978386;28;19918;-84
2022/12/13 09:49:38;;;;;;;;;;;;;;;5.34;56.31;100313.81;4960834;29;19918;-83
2022/12/13 09:52:24;;;;;;;;;;;;;;;5.35;55.80;100313.53;4958406;29;19919;-84
2022/12/13 09:55:20;;;;;;;;;;;;;;;5.43;55.96;100314.81;4950335;29;19919;-83
2022/12/13 09:58:06;;;;;;;;;;;;;;;5.47;56.10;100318.50;4969852;28;19919;-80
2022/12/13 10:00:52;;;;;;;;;;;;;;;5.47;56.28;100323.91;4948206;28;19930;-81
2022/12/13 10:03:40;;;;;;;;;;;;;;;5.48;57.01;100325.53;4960395;29;20380;-81
2022/12/13 10:06:27;;;;;;;;;;;;;;;5.51;58.43;100333.00;4960210;29;19919;-82
2022/12/13 10:09:13;;;;;;;;;;;;;;;5.57;59.45;100327.28;4933876;29;20328;-81
2022/12/13 10:11:57;;;;;;;;;;;;;;;5.45;59.54;100326.88;4939053;29;19919;-79
2022/12/13 10:14:46;;;;;;;;;;;;;;;5.47;59.79;100332.00;4956407;28;19919;-84
2022/12/13 10:17:33;;;;;;;;;;;;;;;5.46;60.42;100335.78;4959568;29;19926;-82
2022/12/13 10:20:18;;;;;;;;;;;;;;;5.49;60.73;100329.78;4954950;28;19923;-82
2022/12/13 10:23:02;;;;;;;;;;;;;;;5.57;61.08;100321.06;4941721;29;19918;-82
2022/12/13 10:25:49;;;;;;;;;;;;;;;5.55;60.67;100312.47;4960055;29;20392;-82
2022/12/13 10:28:34;;;;;;;;;;;;;;;5.53;60.34;100311.97;4933234;29;19923;-84
2022/12/13 10:31:19;;;;;;;;;;;;;;;5.49;60.14;100303.63;4951060;28;20388;-84
2022/12/13 10:34:03;;;;;;;;;;;;;;;5.55;57.63;100304.38;4940912;28;19919;-84
2022/12/13 10:36:48;;;;;;;;;;;;;;;5.59;57.44;100300.00;4954012;28;19919;-84
2022/12/13 10:39:40;;;;;;;;;;;;;;;5.57;57.45;100302.19;4935119;29;19922;-82
2022/12/13 10:42:25;;;;;;;;;;;;;;;5.60;58.17;100297.00;4936794;29;19919;-85
2022/12/13 10:45:09;;;;;;;;;;;;;;;5.65;57.83;100290.72;4939903;29;19919;-82
2022/12/13 10:47:54;;;;;;;;;;;;;;;5.61;57.76;100287.03;4941235;29;19918;-83
2022/12/13 10:50:38;;;;;;;;;;;;;;;5.66;58.07;100273.47;4948060;29;19919;-83
2022/12/13 10:53:26;;;;;;;;;;;;;;;5.63;57.91;100274.06;4966144;28;20295;-82
2022/12/13 10:56:11;;;;;;;;;;;;;;;5.60;58.27;100274.63;4931122;29;19919;-81
2022/12/13 10:59:23;;;;;;;;;;;;;;;5.61;58.88;100273.53;4958423;28;20314;-82
2022/12/13 11:02:27;;;;;;;;;;;;;;;5.61;59.21;100273.53;4963198;28;19918;-83
2022/12/13 11:05:20;;;;;;;;;;;;;;;5.62;59.58;100258.97;4968439;28;19919;-83
2022/12/13 11:08:13;;;;;;;;;;;;;;;5.62;59.21;100260.84;4933644;29;19919;-84
2022/12/13 11:10:59;;;;;;;;;;;;;;;5.68;59.80;100257.00;4957973;28;20376;-84
2022/12/13 11:13:45;;;;;;;;;;;;;;;5.68;59.54;100263.19;4943046;29;20392;-82
2022/12/13 11:16:31;;;;;;;;;;;;;;;5.68;59.69;100252.41;4944445;29;19919;-80
2022/12/13 11:19:19;;;;;;;;;;;;;;;5.67;59.90;100255.38;4940836;29;19922;-80
2022/12/13 11:22:04;;;;;;;;;;;;;;;5.77;59.80;100256.03;4958658;28;19927;-81
2022/12/13 11:24:50;;;;;;;;;;;;;;;5.84;59.86;100248.34;4931016;29;20311;-81
2022/12/13 11:27:48;;;;;;;;;;;;;;;5.84;59.65;100250.25;4930517;29;19919;-81
2022/12/13 11:30:42;;;;;;;;;;;;;;;5.84;59.78;100252.97;4939937;29;19923;-81
2022/12/13 11:33:45;;;;;;;;;;;;;;;5.81;59.64;100250.84;4935488;29;20376;-81
2022/12/13 11:36:48;;;;;;;;;;;;;;;5.85;59.83;100252.66;4952624;29;19919;-81
2022/12/13 11:39:39;;;;;;;;;;;;;;;5.82;59.78;100247.84;4962716;28;19923;-81
2022/12/13 11:42:42;;;;;;;;;;;;;;;5.81;60.03;100238.16;5012483;23;19926;-84
2022/12/13 11:45:36;;;;;;;;;;;;;;;5.86;60.15;100229.16;4995165;28;19922;-83
2022/12/13 11:48:39;;;;;;;;;;;;;;;5.88;60.02;100232.41;4992520;28;20299;-82
2022/12/13 11:51:27;;;;;;;;;;;;;;;5.88;60.32;100235.91;4985338;28;19918;-83
2022/12/13 11:54:27;;;;;;;;;;;;;;;5.92;60.40;100231.53;4992063;28;20305;-82
2022/12/13 11:57:23;;;;;;;;;;;;;;;5.99;58.05;100229.22;4980234;28;20302;-83
2022/12/13 12:00:26;;;;;;;;;;;;;;;6.01;57.12;100224.34;4989465;28;19922;-83
2022/12/13 12:03:14;;;;;;;;;;;;;;;6.06;56.64;100215.34;4994228;28;19917;-82
2022/12/13 12:06:03;;;;;;;;;;;;;;;6.03;56.04;100215.16;4980707;28;19917;-79
2022/12/13 12:08:59;;;;;;;;;;;;;;;6.11;56.18;100217.16;4993419;28;19917;-80
2022/12/13 12:11:59;;;;;;;;;;;;;;;6.19;56.01;100213.78;4988248;28;19918;-82
2022/12/13 12:14:52;;;;;;;;;;;;;;;6.12;55.92;100219.56;4980851;28;19918;-81
2022/12/13 12:17:37;;;;;;;;;;;;;;;6.12;55.37;100216.06;4985417;28;20394;-80
2022/12/13 12:20:26;;;;;;;;;;;;;;;6.16;55.30;100214.38;4983382;28;20311;-79
2022/12/13 12:23:17;;;;;;;;;;;;;;;6.19;54.99;100214.59;4994937;28;19917;-78
2022/12/13 12:26:08;;;;;;;;;;;;;;;6.18;54.41;100204.09;4980770;28;19918;-82
2022/12/13 12:28:53;;;;;;;;;;;;;;;6.13;54.77;100210.38;4988129;28;19921;-79
2022/12/13 12:31:48;;;;;;;;;;;;;;;6.17;54.73;100205.97;4984250;28;20298;-78
2022/12/13 12:34:56;;;;;;;;;;;;;;;6.26;55.08;100206.09;4990169;28;19918;-79
2022/12/13 12:37:40;;;;;;;;;;;;;;;6.27;54.94;100196.88;4982014;28;19917;-77
2022/12/13 12:40:25;;;;;;;;;;;;;;;6.19;54.79;100198.41;4977972;28;20392;-77
2022/12/13 12:43:15;;;;;;;;;;;;;;;6.27;55.75;100199.59;4986931;28;19936;-77
2022/12/13 12:46:05;;;;;;;;;;;;;;;6.34;54.86;100191.91;4978451;28;19922;-77
2022/12/13 12:48:59;;;;;;;;;;;;;;;6.32;54.83;100191.38;4972879;28;19922;-78
2022/12/13 12:51:54;;;;;;;;;;;;;;;6.35;55.22;100185.38;4978440;28;19922;-79
2022/12/13 12:54:42;;;;;;;;;;;;;;;6.36;54.96;100182.38;4989685;28;19922;-80
2022/12/13 12:57:27;;;;;;;;;;;;;;;6.38;55.06;100176.69;4994933;28;19918;-76
2022/12/13 13:00:17;;;;;;;;;;;;;;;6.35;55.24;100178.09;4992343;28;19922;-78
2022/12/13 13:03:10;;;;;;;;;;;;;;;6.38;55.56;100168.59;4990147;28;19918;-78
2022/12/13 13:05:55;;;;;;;;;;;;;;;6.36;56.48;100179.69;4979299;28;19918;-79
2022/12/13 13:08:43;;;;;;;;;;;;;;;6.49;55.33;100177.28;4986230;28;19921;-80
2022/12/13 13:11:29;;;;;;;;;;;;;;;6.44;55.33;100180.91;4983277;28;19917;-78
2022/12/13 13:14:28;;;;;;;;;;;;;;;6.50;55.23;100179.72;4983288;28;19918;-79
2022/12/13 13:17:36;;;;;;;;;;;;;;;6.50;55.21;100187.81;4981230;28;19918;-79
2022/12/13 13:20:24;;;;;;;;;;;;;;;6.44;56.04;100189.81;4987739;28;20287;-79
2022/12/13 13:23:12;;;;;;;;;;;;;;;6.47;56.17;100196.50;4997935;28;19926;-78
2022/12/13 13:25:57;;;;;;;;;;;;;;;6.49;56.48;100193.50;4990667;28;19918;-79
2022/12/13 13:28:41;;;;;;;;;;;;;;;6.51;56.02;100197.47;4982835;28;19918;-79
2022/12/13 13:31:26;;;;;;;;;;;;;;;6.48;56.06;100206.19;4989177;28;19918;-79
2022/12/13 13:34:24;;;;;;;;;;;;;;;6.44;56.25;100205.22;5004848;28;20294;-79
2022/12/13 13:37:19;;;;;;;;;;;;;;;6.49;56.45;100204.31;4973411;28;19921;-79
2022/12/13 13:40:13;;;;;;;;;;;;;;;6.50;56.56;100198.59;4966707;28;19922;-78
2022/12/13 13:43:04;;;;;;;;;;;;;;;6.49;56.97;100201.59;4987828;28;19918;-79
2022/12/13 13:45:48;;;;;;;;;;;;;;;6.51;56.88;100200.19;4976851;28;19922;-81
2022/12/13 13:48:42;;;;;;;;;;;;;;;6.55;56.39;100211.22;4993013;28;19917;-78
2022/12/13 13:51:38;;;;;;;;;;;;;;;6.51;56.40;100208.28;4985492;28;21642;-78
2022/12/13 13:54:37;;;;;;;;;;;;;;;6.56;56.18;100201.97;4988798;28;19917;-78
2022/12/13 13:57:49;;;;;;;;;;;;;;;6.59;55.73;100201.41;4995448;28;19925;-79
2022/12/13 14:00:43;;;;;;;;;;;;;;;6.60;55.80;100203.81;5005107;28;20394;-79
2022/12/13 14:03:28;;;;;;;;;;;;;;;6.63;56.30;100200.50;5004780;28;19917;-81
2022/12/13 14:06:34;;;;;;;;;;;;;;;6.66;55.51;100202.56;4988278;28;20314;-78
2022/12/13 14:09:19;;;;;;;;;;;;;;;6.59;55.72;100198.69;4992216;28;19921;-81
2022/12/13 14:12:06;;;;;;;;;;;;;;;6.62;56.29;100203.47;4991311;28;20103;-79
2022/12/13 14:14:54;;;;;;;;;;;;;;;6.61;56.10;100201.88;4990331;28;19917;-79
2022/12/13 14:17:57;;;;;;;;;;;;;;;6.65;55.83;100203.72;5003923;28;19917;-78
2022/12/13 14:21:00;;;;;;;;;;;;;;;6.65;56.08;100195.59;5001496;28;19921;-79
2022/12/13 14:24:03;;;;;;;;;;;;;;;6.73;56.26;100192.19;5007307;28;20305;-79
2022/12/13 14:27:11;;;;;;;;;;;;;;;6.74;55.66;100182.16;4986352;28;19917;-79
2022/12/13 14:29:56;;;;;;;;;;;;;;;6.85;54.91;100181.66;4989651;28;20386;-78
2022/12/13 14:32:41;;;;;;;;;;;;;;;6.84;55.49;100179.25;4995358;28;19918;-78
2022/12/13 14:35:30;;;;;;;;;;;;;;;6.87;55.49;100182.13;4994597;28;20295;-78